Time;durP1;ratioP1;P1;durP2;ratioP2;P2;SDS_P1;SDS_P2;PMS_P1;PMS_P2;Temp;Humidity;BMP_temperature;BMP_pressure;BME280_temperature;BME280_humidity;BME280_pressure;Samples;Min_cycle;Max_cycle;Signal;HPM_P1;HPM_P2
2024/01/16 00:01:10;;;;;;;4.07;1.75;;;1.40;99.90;;;;;;5072724;28;20044;-65
2024/01/16 00:03:38;;;;;;;3.50;1.50;;;1.40;99.90;;;;;;5090579;28;20055;-66
2024/01/16 00:06:04;;;;;;;3.50;1.48;;;1.50;99.90;;;;;;5091102;28;20052;-66
2024/01/16 00:08:29;;;;;;;8.23;2.15;;;1.40;99.90;;;;;;5090662;28;20464;-66
2024/01/16 00:10:55;;;;;;;5.57;1.48;;;1.50;99.90;;;;;;5090945;28;20039;-66
2024/01/16 00:13:21;;;;;;;12.32;1.98;;;1.40;99.90;;;;;;5090679;28;20052;-66
2024/01/16 00:15:46;;;;;;;6.20;1.77;;;1.40;99.90;;;;;;5071600;28;20048;-66
2024/01/16 00:18:12;;;;;;;2.88;1.52;;;1.40;99.90;;;;;;5071814;28;20055;-67
2024/01/16 00:20:38;;;;;;;7.10;2.00;;;1.40;99.90;;;;;;5071728;28;20139;-66
2024/01/16 00:23:03;;;;;;;7.35;1.50;;;1.40;99.90;;;;;;5071674;28;20044;-67
2024/01/16 00:25:29;;;;;;;8.48;1.60;;;1.30;99.90;;;;;;5090087;28;20130;-66
2024/01/16 00:27:55;;;;;;;5.95;2.05;;;1.40;99.90;;;;;;5090184;28;20139;-66
2024/01/16 00:30:21;;;;;;;8.52;1.77;;;1.30;99.90;;;;;;5090139;28;20153;-66
2024/01/16 00:32:46;;;;;;;16.15;2.55;;;1.30;99.90;;;;;;5089568;28;20467;-66
2024/01/16 00:35:12;;;;;;;5.13;1.80;;;1.40;99.90;;;;;;5089938;28;20096;-66
2024/01/16 00:37:39;;;;;;;7.43;2.13;;;1.40;99.90;;;;;;5089230;28;20039;-66
2024/01/16 00:40:08;;;;;;;6.45;1.85;;;1.30;99.90;;;;;;5089682;28;20443;-66
2024/01/16 00:42:34;;;;;;;4.07;1.65;;;1.30;99.90;;;;;;5089328;28;20071;-66
2024/01/16 00:45:00;;;;;;;6.35;1.65;;;1.30;99.90;;;;;;5089384;28;20090;-67
2024/01/16 00:47:25;;;;;;;4.45;1.77;;;1.30;99.90;;;;;;5089127;28;20043;-67
2024/01/16 00:49:51;;;;;;;10.57;2.00;;;1.30;99.90;;;;;;5089057;28;20141;-67
2024/01/16 00:52:17;;;;;;;9.00;1.60;;;1.30;99.90;;;;;;5089083;28;20070;-67
2024/01/16 00:54:43;;;;;;;8.07;2.10;;;1.30;99.90;;;;;;5089246;28;20531;-66
2024/01/16 00:57:08;;;;;;;8.93;1.85;;;1.30;99.90;;;;;;5070954;28;20071;-67
2024/01/16 00:59:34;;;;;;;8.20;2.35;;;1.30;99.90;;;;;;5089204;28;20476;-66
2024/01/16 01:02:00;;;;;;;10.43;2.00;;;1.30;99.90;;;;;;5070845;28;20123;-66
2024/01/16 01:04:26;;;;;;;7.30;1.67;;;1.30;99.90;;;;;;5089143;28;20066;-66
2024/01/16 01:06:52;;;;;;;4.13;1.70;;;1.30;99.90;;;;;;5088524;28;20673;-66
2024/01/16 01:09:17;;;;;;;5.53;1.75;;;1.30;99.90;;;;;;5053796;28;20059;-68
2024/01/16 01:11:43;;;;;;;7.63;1.42;;;1.30;99.90;;;;;;5088774;28;20048;-67
2024/01/16 01:14:09;;;;;;;3.70;1.33;;;1.30;99.90;;;;;;5088992;28;20079;-68
2024/01/16 01:16:34;;;;;;;5.38;1.80;;;1.30;99.90;;;;;;5088880;28;20046;-67
2024/01/16 01:19:00;;;;;;;6.35;1.70;;;1.30;99.90;;;;;;5070593;28;20766;-66
2024/01/16 01:21:26;;;;;;;3.60;1.63;;;1.30;99.90;;;;;;5088161;28;20555;-66
2024/01/16 01:23:52;;;;;;;9.88;1.30;;;1.30;99.90;;;;;;5070733;28;20060;-66
2024/01/16 01:26:19;;;;;;;5.93;2.00;;;1.30;99.90;;;;;;5088491;28;20492;-66
2024/01/16 01:28:44;;;;;;;3.53;1.55;;;1.20;99.90;;;;;;5088713;28;20381;-68
2024/01/16 01:31:11;;;;;;;4.00;1.35;;;1.30;99.90;;;;;;5088760;28;20040;-67
2024/01/16 01:33:37;;;;;;;2.85;1.80;;;1.30;99.90;;;;;;5069999;28;20108;-67
2024/01/16 01:36:03;;;;;;;4.10;1.65;;;1.30;99.90;;;;;;5088347;28;20088;-67
2024/01/16 01:38:28;;;;;;;4.05;1.50;;;1.30;99.90;;;;;;5088381;28;20040;-66
2024/01/16 01:40:54;;;;;;;7.65;1.88;;;1.30;99.90;;;;;;5070454;28;20050;-66
2024/01/16 01:43:21;;;;;;;7.35;1.58;;;1.20;99.90;;;;;;5070166;28;20135;-67
2024/01/16 01:46:05;;;;;;;6.88;1.50;;;1.20;99.90;;;;;;5088184;28;20059;-67
2024/01/16 01:48:31;;;;;;;6.45;1.83;;;1.20;99.90;;;;;;5088654;28;20036;-67
2024/01/16 01:50:58;;;;;;;7.63;2.03;;;1.20;99.90;;;;;;5088487;28;20348;-67
2024/01/16 01:53:24;;;;;;;4.90;1.83;;;1.20;99.90;;;;;;5088497;28;20402;-67
2024/01/16 01:55:50;;;;;;;2.63;1.80;;;1.30;99.90;;;;;;5088555;28;20040;-67
2024/01/16 01:58:16;;;;;;;4.40;1.63;;;1.20;99.90;;;;;;5088182;28;20047;-67
2024/01/16 02:00:42;;;;;;;3.92;2.60;;;1.20;99.90;;;;;;5088201;28;20047;-67
2024/01/16 02:03:08;;;;;;;4.25;1.67;;;1.20;99.90;;;;;;5087900;28;20052;-67
2024/01/16 02:05:34;;;;;;;7.25;1.95;;;1.20;99.90;;;;;;5087980;28;20063;-67
2024/01/16 02:08:00;;;;;;;3.67;2.22;;;1.30;99.90;;;;;;5087969;28;20403;-67
2024/01/16 02:10:26;;;;;;;7.40;1.70;;;1.30;99.90;;;;;;5088020;28;20055;-67
2024/01/16 02:12:52;;;;;;;2.33;1.60;;;1.30;99.90;;;;;;5087759;28;20051;-67
2024/01/16 02:15:17;;;;;;;9.75;1.80;;;1.30;99.90;;;;;;5088331;28;20040;-67
2024/01/16 02:17:43;;;;;;;5.43;1.63;;;1.30;99.90;;;;;;5069835;28;20426;-67
2024/01/16 02:20:09;;;;;;;6.63;2.05;;;1.30;99.90;;;;;;5087625;28;20036;-67
2024/01/16 02:22:37;;;;;;;6.18;2.20;;;1.40;99.90;;;;;;5087499;28;20044;-67
2024/01/16 02:25:03;;;;;;;6.13;1.60;;;1.30;99.90;;;;;;5088089;28;20622;-66
2024/01/16 02:27:28;;;;;;;6.22;2.28;;;1.30;99.90;;;;;;5087825;28;20153;-67
2024/01/16 02:29:54;;;;;;;3.83;1.40;;;1.30;99.90;;;;;;5088115;28;20086;-67
2024/01/16 02:32:20;;;;;;;8.52;1.40;;;1.30;99.90;;;;;;5069777;28;20040;-68
2024/01/16 02:34:46;;;;;;;4.00;1.33;;;1.20;99.90;;;;;;5087850;28;20044;-68
2024/01/16 02:37:12;;;;;;;5.88;1.30;;;1.20;99.90;;;;;;5087901;28;20473;-68
2024/01/16 02:39:37;;;;;;;7.55;1.60;;;1.10;99.90;;;;;;5088092;28;20120;-68
2024/01/16 02:42:03;;;;;;;6.70;1.90;;;1.20;99.90;;;;;;5087704;28;20136;-67
2024/01/16 02:44:29;;;;;;;4.80;1.77;;;1.20;99.90;;;;;;5087792;28;20147;-67
2024/01/16 02:46:54;;;;;;;6.57;1.60;;;1.20;99.90;;;;;;5052494;28;20043;-68
2024/01/16 02:49:21;;;;;;;7.10;1.55;;;1.20;99.90;;;;;;5087797;28;20091;-67
2024/01/16 02:51:46;;;;;;;5.90;1.67;;;1.20;99.90;;;;;;5087558;28;20047;-68
2024/01/16 02:54:12;;;;;;;9.45;1.90;;;1.20;99.90;;;;;;5087439;28;20037;-67
2024/01/16 02:56:38;;;;;;;7.60;1.73;;;1.10;99.90;;;;;;5069074;28;20047;-67
2024/01/16 02:59:03;;;;;;;4.72;1.63;;;1.20;99.90;;;;;;5070698;28;20040;-67
2024/01/16 03:01:29;;;;;;;4.70;1.67;;;1.10;99.90;;;;;;5072574;28;20116;-67
2024/01/16 03:03:55;;;;;;;5.15;1.58;;;1.10;99.90;;;;;;5090958;28;20109;-67
2024/01/16 03:06:24;;;;;;;7.45;2.25;;;1.20;99.90;;;;;;5090946;28;20083;-67
2024/01/16 03:08:51;;;;;;;5.38;1.58;;;1.10;99.90;;;;;;5072573;28;20079;-67
2024/01/16 03:11:17;;;;;;;4.28;1.42;;;1.20;99.90;;;;;;5090778;28;20157;-66
2024/01/16 03:13:43;;;;;;;7.85;1.60;;;1.20;99.90;;;;;;5072631;28;20048;-66
2024/01/16 03:16:10;;;;;;;7.32;1.50;;;1.30;99.90;;;;;;5072241;28;20121;-66
2024/01/16 03:18:37;;;;;;;7.25;1.55;;;1.20;99.90;;;;;;5090887;28;20128;-66
2024/01/16 03:21:07;;;;;;;5.20;2.00;;;1.20;99.90;;;;;;5090626;28;20036;-66
2024/01/16 03:23:33;;;;;;;4.95;1.75;;;1.20;99.90;;;;;;5090771;28;20185;-67
2024/01/16 03:25:59;;;;;;;3.50;1.50;;;1.20;99.90;;;;;;5072253;28;20166;-66
2024/01/16 03:28:25;;;;;;;3.85;1.85;;;1.20;99.90;;;;;;5072345;28;20109;-68
2024/01/16 03:30:50;;;;;;;4.68;1.65;;;1.20;99.90;;;;;;5072192;28;20040;-67
2024/01/16 03:33:16;;;;;;;3.45;1.70;;;1.20;99.90;;;;;;5090477;28;20040;-67
2024/01/16 03:35:42;;;;;;;4.95;1.70;;;1.20;99.90;;;;;;5090424;28;20402;-67
2024/01/16 03:38:07;;;;;;;6.90;1.65;;;1.20;99.90;;;;;;5072463;28;20048;-67
2024/01/16 03:40:34;;;;;;;6.20;1.60;;;1.20;99.90;;;;;;5090590;28;20456;-67
2024/01/16 03:43:02;;;;;;;4.47;2.22;;;1.20;99.90;;;;;;5072025;28;20043;-67
2024/01/16 03:45:28;;;;;;;4.60;1.60;;;1.20;99.90;;;;;;5090077;28;20032;-67
2024/01/16 03:47:53;;;;;;;2.67;1.40;;;1.10;99.90;;;;;;5090053;28;20501;-67
2024/01/16 03:50:19;;;;;;;5.32;1.60;;;1.10;99.90;;;;;;5090436;28;20073;-67
2024/01/16 03:52:45;;;;;;;6.25;1.65;;;1.20;99.90;;;;;;5089993;28;20388;-68
2024/01/16 03:55:10;;;;;;;4.55;1.65;;;1.10;99.90;;;;;;5090029;28;20145;-67
2024/01/16 03:57:36;;;;;;;3.50;1.40;;;1.20;99.90;;;;;;5090224;28;20063;-67
2024/01/16 04:00:02;;;;;;;4.45;1.73;;;1.20;99.90;;;;;;5089666;28;20052;-67
2024/01/16 04:02:30;;;;;;;4.00;1.42;;;1.20;99.90;;;;;;5089712;28;20621;-67
2024/01/16 04:04:56;;;;;;;7.50;1.67;;;1.20;99.90;;;;;;5089844;28;20047;-67
2024/01/16 04:07:23;;;;;;;6.82;2.53;;;1.20;99.90;;;;;;5089715;28;20411;-67
2024/01/16 04:09:49;;;;;;;2.08;1.40;;;1.20;99.90;;;;;;5071065;28;20048;-67
2024/01/16 04:12:15;;;;;;;5.72;1.50;;;1.20;99.90;;;;;;5089630;28;20109;-67
2024/01/16 04:14:40;;;;;;;8.32;1.70;;;1.10;99.90;;;;;;5089610;28;20686;-67
2024/01/16 04:17:06;;;;;;;6.35;1.77;;;1.00;99.90;;;;;;5089478;28;20067;-67
2024/01/16 04:19:33;;;;;;;8.70;2.25;;;1.10;99.90;;;;;;5089548;28;20044;-67
2024/01/16 04:22:00;;;;;;;2.65;1.33;;;1.10;99.90;;;;;;5089085;28;20455;-67
2024/01/16 04:24:27;;;;;;;6.65;1.50;;;1.10;99.90;;;;;;5089347;28;20048;-67
2024/01/16 04:26:53;;;;;;;5.55;1.48;;;1.00;99.90;;;;;;5071420;28;20043;-67
2024/01/16 04:29:18;;;;;;;5.32;1.80;;;1.10;99.90;;;;;;5070841;28;20054;-67
2024/01/16 04:31:44;;;;;;;7.57;1.55;;;1.10;99.90;;;;;;5071237;28;20130;-67
2024/01/16 04:34:10;;;;;;;5.45;1.40;;;1.10;99.90;;;;;;5089330;28;20086;-67
2024/01/16 04:36:35;;;;;;;2.83;1.33;;;1.10;99.90;;;;;;5089217;28;20805;-67
2024/01/16 04:39:03;;;;;;;8.40;2.17;;;1.00;99.90;;;;;;5070950;28;20056;-67
2024/01/16 04:41:29;;;;;;;2.83;1.48;;;1.00;99.90;;;;;;5089040;28;20134;-67
2024/01/16 04:43:55;;;;;;;5.55;1.85;;;1.10;99.90;;;;;;5089263;28;20368;-67
2024/01/16 04:46:21;;;;;;;6.10;1.50;;;1.10;99.90;;;;;;5089183;28;20234;-67
2024/01/16 04:48:46;;;;;;;3.38;1.90;;;1.10;99.90;;;;;;5070946;28;20044;-67
2024/01/16 04:51:12;;;;;;;5.10;1.98;;;1.10;99.90;;;;;;5070851;28;20403;-66
2024/01/16 04:53:38;;;;;;;5.03;1.80;;;1.10;99.90;;;;;;5071080;28;20084;-67
2024/01/16 04:56:04;;;;;;;4.53;2.10;;;1.10;99.90;;;;;;5070841;28;20063;-67
2024/01/16 04:58:31;;;;;;;4.63;1.73;;;1.20;99.90;;;;;;5088643;28;20429;-67
2024/01/16 05:00:57;;;;;;;4.70;1.70;;;1.10;99.90;;;;;;5089443;28;20044;-67
2024/01/16 05:03:22;;;;;;;7.10;1.92;;;1.10;99.90;;;;;;5088636;28;20070;-67
2024/01/16 05:05:48;;;;;;;8.23;1.70;;;1.10;99.90;;;;;;5089017;28;20126;-67
2024/01/16 05:08:14;;;;;;;5.18;1.65;;;1.10;99.90;;;;;;5088953;28;20484;-67
2024/01/16 05:10:39;;;;;;;7.07;2.30;;;1.10;99.90;;;;;;5070845;28;20044;-67
2024/01/16 05:13:05;;;;;;;5.85;1.60;;;1.10;99.90;;;;;;5089651;28;20122;-67
2024/01/16 05:15:31;;;;;;;4.88;1.67;;;1.20;99.90;;;;;;5089865;28;20184;-67
2024/01/16 05:17:56;;;;;;;3.17;1.63;;;1.20;99.90;;;;;;5070705;28;20055;-68
2024/01/16 05:20:23;;;;;;;6.82;2.55;;;1.10;99.90;;;;;;5088947;28;20402;-68
2024/01/16 05:22:49;;;;;;;4.38;2.08;;;1.10;99.90;;;;;;5069459;28;20071;-68
2024/01/16 05:25:17;;;;;;;5.35;1.90;;;1.10;99.90;;;;;;5070734;28;20106;-68
2024/01/16 05:27:43;;;;;;;7.47;1.88;;;1.20;99.90;;;;;;5088708;28;20145;-67
2024/01/16 05:30:09;;;;;;;6.28;2.08;;;1.10;99.90;;;;;;5070445;28;20086;-68
2024/01/16 05:32:35;;;;;;;5.95;1.95;;;1.00;99.90;;;;;;5070271;28;20036;-68
2024/01/16 05:35:01;;;;;;;5.35;1.92;;;1.10;99.90;;;;;;5070103;28;20091;-68
2024/01/16 05:37:29;;;;;;;11.02;2.17;;;1.00;99.90;;;;;;5070008;28;20059;-68
2024/01/16 05:39:55;;;;;;;4.57;1.70;;;1.00;99.90;;;;;;5088278;28;20404;-68
2024/01/16 05:42:20;;;;;;;5.60;1.88;;;1.10;99.90;;;;;;5087900;28;20048;-68
2024/01/16 05:44:46;;;;;;;4.78;1.42;;;1.10;99.90;;;;;;5088113;28;20460;-68
2024/01/16 05:47:12;;;;;;;6.13;2.53;;;1.10;99.90;;;;;;5069865;28;20580;-68
2024/01/16 05:49:38;;;;;;;3.10;1.50;;;1.10;99.90;;;;;;5069970;28;20051;-68
2024/01/16 05:52:04;;;;;;;3.78;1.70;;;1.10;99.90;;;;;;5088073;28;20126;-68
2024/01/16 05:54:29;;;;;;;7.78;1.90;;;1.00;99.90;;;;;;5069735;28;20076;-68
2024/01/16 05:56:55;;;;;;;8.18;2.05;;;1.10;99.90;;;;;;5087958;28;20036;-68
2024/01/16 05:59:20;;;;;;;12.25;2.17;;;1.00;99.90;;;;;;5069867;28;20043;-68
2024/01/16 06:01:46;;;;;;;5.38;2.35;;;1.00;99.90;;;;;;5069657;28;20093;-68
2024/01/16 06:04:12;;;;;;;6.50;1.65;;;1.00;99.90;;;;;;5087761;28;20088;-68
2024/01/16 06:06:38;;;;;;;4.43;1.88;;;1.00;99.90;;;;;;5087819;28;20046;-68
2024/01/16 06:09:05;;;;;;;9.25;2.00;;;1.00;99.90;;;;;;5069478;28;20046;-66
2024/01/16 06:11:34;;;;;;;5.15;1.85;;;1.10;99.90;;;;;;5087687;28;20456;-68
2024/01/16 06:14:00;;;;;;;5.63;1.92;;;1.00;99.90;;;;;;5087882;28;20048;-68
2024/01/16 06:16:26;;;;;;;4.32;1.75;;;1.10;99.90;;;;;;5088083;28;20036;-68
2024/01/16 06:18:52;;;;;;;5.45;1.90;;;1.10;99.90;;;;;;5069541;28;20119;-68
2024/01/16 06:21:17;;;;;;;5.68;1.92;;;1.20;99.90;;;;;;5069368;28;20040;-68
2024/01/16 06:23:43;;;;;;;10.45;2.28;;;1.20;99.90;;;;;;5087962;28;20098;-68
2024/01/16 06:26:09;;;;;;;4.35;2.13;;;1.10;99.90;;;;;;5087862;28;20040;-68
2024/01/16 06:28:36;;;;;;;7.90;2.53;;;1.10;99.90;;;;;;5087653;28;20529;-67
2024/01/16 06:31:01;;;;;;;5.93;2.30;;;1.10;99.90;;;;;;5069930;28;20052;-67
2024/01/16 06:33:27;;;;;;;5.35;2.50;;;1.10;99.90;;;;;;5071525;28;20054;-67
2024/01/16 06:35:56;;;;;;;5.38;2.45;;;1.10;99.90;;;;;;5073376;28;20473;-67
2024/01/16 06:38:22;;;;;;;3.13;1.92;;;1.10;99.90;;;;;;5091603;28;20119;-68
2024/01/16 06:40:47;;;;;;;4.78;2.45;;;1.10;99.90;;;;;;5091157;28;20135;-67
2024/01/16 06:43:15;;;;;;;7.15;2.50;;;1.10;99.90;;;;;;5073033;28;20048;-67
2024/01/16 06:45:42;;;;;;;5.82;2.22;;;1.10;99.90;;;;;;5091330;28;20040;-68
2024/01/16 06:48:08;;;;;;;2.38;2.00;;;1.20;99.90;;;;;;5090784;28;20040;-67
2024/01/16 06:50:34;;;;;;;4.80;2.90;;;1.20;99.90;;;;;;5072796;28;20104;-66
2024/01/16 06:52:59;;;;;;;2.75;2.10;;;1.10;99.90;;;;;;5072865;28;20068;-67
2024/01/16 06:55:25;;;;;;;4.80;2.13;;;1.30;99.90;;;;;;5090758;28;20097;-67
2024/01/16 06:57:51;;;;;;;2.95;2.40;;;1.20;99.90;;;;;;5072567;28;20129;-67
2024/01/16 07:00:16;;;;;;;7.25;2.45;;;1.20;99.90;;;;;;5072527;28;20044;-67
2024/01/16 07:02:45;;;;;;;8.00;3.00;;;1.10;99.90;;;;;;5090970;28;20059;-67
2024/01/16 07:05:14;;;;;;;7.57;3.03;;;1.10;99.90;;;;;;5056342;28;20416;-67
2024/01/16 07:07:40;;;;;;;4.25;2.30;;;1.10;99.90;;;;;;5090757;28;20114;-67
2024/01/16 07:10:18;;;;;;;6.80;2.83;;;1.20;99.90;;;;;;5070246;28;20127;-67
2024/01/16 07:12:45;;;;;;;7.22;2.90;;;1.10;99.90;;;;;;5072052;28;20087;-67
2024/01/16 07:15:10;;;;;;;8.75;3.28;;;1.10;99.90;;;;;;5090792;28;20047;-67
2024/01/16 07:17:36;;;;;;;7.05;3.25;;;1.00;99.90;;;;;;5072155;28;20051;-67
2024/01/16 07:20:02;;;;;;;4.88;2.95;;;1.10;99.90;;;;;;5072202;28;20055;-67
2024/01/16 07:22:28;;;;;;;10.23;2.78;;;1.00;99.90;;;;;;5090349;28;20028;-67
2024/01/16 07:24:54;;;;;;;11.00;4.22;;;1.00;99.90;;;;;;5090352;28;20055;-67
2024/01/16 07:27:19;;;;;;;7.95;2.70;;;1.00;99.90;;;;;;5090738;28;20470;-67
2024/01/16 07:29:45;;;;;;;8.02;3.70;;;1.00;99.90;;;;;;5072330;28;20040;-66
2024/01/16 07:32:11;;;;;;;6.32;3.33;;;1.00;99.90;;;;;;5090779;28;20663;-67
2024/01/16 07:34:36;;;;;;;6.85;3.55;;;1.00;99.90;;;;;;5070721;28;20098;-68
2024/01/16 07:37:02;;;;;;;7.72;2.90;;;1.10;99.90;;;;;;5090095;28;20044;-68
2024/01/16 07:39:28;;;;;;;5.65;4.40;;;1.10;99.90;;;;;;5089214;28;20123;-68
2024/01/16 07:41:54;;;;;;;10.57;4.00;;;1.10;99.90;;;;;;5090175;28;20036;-68
2024/01/16 07:44:19;;;;;;;8.38;3.38;;;1.10;99.90;;;;;;5070195;28;20044;-67
2024/01/16 07:46:45;;;;;;;7.43;3.88;;;1.10;99.90;;;;;;5090018;28;20090;-66
2024/01/16 07:49:10;;;;;;;6.00;3.25;;;1.10;99.90;;;;;;5090156;28;20036;-67
2024/01/16 07:51:36;;;;;;;10.50;4.07;;;1.10;99.90;;;;;;5089821;28;20076;-66
2024/01/16 07:54:07;;;;;;;6.30;3.58;;;1.20;99.90;;;;;;5089818;28;20036;-67
2024/01/16 07:56:33;;;;;;;8.60;3.53;;;1.10;99.90;;;;;;5071693;28;20364;-68
2024/01/16 07:58:59;;;;;;;6.55;3.47;;;1.20;99.90;;;;;;5055151;28;20040;-68
2024/01/16 08:01:25;;;;;;;6.35;3.65;;;1.10;99.90;;;;;;5071851;28;20162;-67
2024/01/16 08:03:51;;;;;;;7.32;3.97;;;1.10;99.90;;;;;;5089569;28;20144;-65
2024/01/16 08:06:16;;;;;;;6.10;3.50;;;1.10;99.90;;;;;;5089678;28;20048;-65
2024/01/16 08:08:42;;;;;;;5.88;4.10;;;1.10;99.90;;;;;;5071527;28;20044;-66
2024/01/16 08:11:08;;;;;;;6.82;3.92;;;1.20;99.90;;;;;;5089749;28;20483;-66
2024/01/16 08:13:33;;;;;;;9.80;3.95;;;1.10;99.90;;;;;;5089684;28;20082;-66
2024/01/16 08:15:59;;;;;;;7.10;3.92;;;1.20;99.90;;;;;;5071684;28;20043;-66
2024/01/16 08:18:25;;;;;;;8.38;4.60;;;1.20;99.90;;;;;;5089612;28;20081;-67
2024/01/16 08:20:50;;;;;;;8.05;4.25;;;1.20;99.90;;;;;;5089449;28;20115;-66
2024/01/16 08:23:16;;;;;;;7.75;4.05;;;1.20;99.90;;;;;;5089819;28;20044;-67
2024/01/16 08:25:42;;;;;;;8.90;4.25;;;1.30;99.90;;;;;;5071334;28;20079;-67
2024/01/16 08:28:07;;;;;;;8.40;4.35;;;1.30;99.90;;;;;;5071266;28;20042;-67
2024/01/16 08:30:33;;;;;;;7.50;4.20;;;1.20;99.90;;;;;;5089529;28;20075;-66
2024/01/16 08:32:59;;;;;;;10.20;4.68;;;1.20;99.90;;;;;;5071150;28;20075;-67
2024/01/16 08:35:24;;;;;;;5.95;4.03;;;1.30;99.90;;;;;;5089375;28;20044;-67
2024/01/16 08:37:50;;;;;;;7.95;4.25;;;1.30;99.90;;;;;;5089910;28;20484;-67
2024/01/16 08:40:16;;;;;;;10.35;4.65;;;1.30;99.90;;;;;;5089386;28;20119;-67
2024/01/16 08:42:41;;;;;;;7.15;4.80;;;1.30;99.90;;;;;;5071179;28;20085;-66
2024/01/16 08:45:08;;;;;;;11.65;4.43;;;1.30;99.90;;;;;;5054601;28;20048;-66
2024/01/16 08:47:34;;;;;;;10.63;4.53;;;1.30;99.90;;;;;;5089321;28;20055;-67
2024/01/16 08:49:59;;;;;;;6.72;4.13;;;1.40;99.90;;;;;;5089132;28;20083;-66
2024/01/16 08:52:26;;;;;;;7.40;4.93;;;1.40;99.90;;;;;;5054315;28;20087;-66
2024/01/16 08:54:52;;;;;;;12.70;4.82;;;1.30;99.90;;;;;;5089331;28;20355;-67
2024/01/16 08:57:18;;;;;;;8.70;4.85;;;1.40;99.90;;;;;;5070588;28;20102;-67
2024/01/16 08:59:43;;;;;;;6.68;4.75;;;1.50;99.90;;;;;;5089883;28;20036;-67
2024/01/16 09:02:09;;;;;;;9.95;4.47;;;1.50;99.90;;;;;;5071582;28;20048;-66
2024/01/16 09:04:35;;;;;;;9.73;5.22;;;1.60;99.90;;;;;;5071156;28;20417;-67
2024/01/16 09:07:04;;;;;;;9.02;4.93;;;1.60;99.90;;;;;;5089856;28;20454;-67
2024/01/16 09:09:30;;;;;;;11.32;4.32;;;1.60;99.90;;;;;;5089666;28;20051;-67
2024/01/16 09:11:57;;;;;;;7.68;4.45;;;1.60;99.90;;;;;;5089922;28;20120;-67
2024/01/16 09:14:23;;;;;;;13.25;4.72;;;1.60;99.90;;;;;;5089635;28;20480;-67
2024/01/16 09:16:49;;;;;;;7.68;5.20;;;1.60;99.90;;;;;;5089692;28;20116;-66
2024/01/16 09:19:15;;;;;;;6.97;4.45;;;1.60;99.90;;;;;;5089535;28;20527;-67
2024/01/16 09:21:40;;;;;;;13.90;5.57;;;1.60;99.90;;;;;;5071325;28;20491;-66
2024/01/16 09:24:06;;;;;;;7.05;5.20;;;1.60;99.90;;;;;;5071288;28;20052;-67
2024/01/16 09:26:32;;;;;;;8.40;4.65;;;1.60;99.90;;;;;;5071272;28;20055;-66
2024/01/16 09:28:58;;;;;;;9.48;6.00;;;1.60;99.90;;;;;;5071189;28;20044;-66
2024/01/16 09:31:23;;;;;;;9.38;4.93;;;1.60;99.90;;;;;;5071207;28;20096;-66
2024/01/16 09:33:49;;;;;;;6.88;4.60;;;1.70;99.90;;;;;;5070814;28;20036;-67
2024/01/16 09:36:15;;;;;;;11.55;5.00;;;1.50;99.90;;;;;;5089297;28;20040;-67
2024/01/16 09:38:41;;;;;;;9.13;4.88;;;1.70;99.90;;;;;;5089299;28;20104;-66
2024/01/16 09:41:07;;;;;;;12.05;4.97;;;1.70;99.90;;;;;;5054460;28;20044;-67
2024/01/16 09:43:33;;;;;;;12.25;5.45;;;1.70;99.90;;;;;;5069241;28;20123;-67
2024/01/16 09:46:05;;;;;;;6.50;4.35;;;1.70;99.90;;;;;;5088942;28;20055;-67
2024/01/16 09:48:31;;;;;;;5.63;4.53;;;1.80;99.90;;;;;;5054346;28;20756;-67
2024/01/16 09:50:58;;;;;;;12.75;5.00;;;1.80;99.90;;;;;;5089179;28;20048;-66
2024/01/16 09:53:23;;;;;;;11.65;5.05;;;1.80;99.90;;;;;;5089389;28;20032;-67
2024/01/16 09:55:53;;;;;;;8.02;4.63;;;1.80;99.90;;;;;;5089327;28;20514;-67
2024/01/16 09:58:20;;;;;;;10.95;4.47;;;1.90;99.90;;;;;;5071194;28;20044;-67
2024/01/16 10:00:48;;;;;;;10.07;4.45;;;1.90;99.90;;;;;;5071406;28;20119;-67
2024/01/16 10:03:14;;;;;;;7.03;4.55;;;1.90;99.90;;;;;;5070956;28;20123;-67
2024/01/16 10:05:42;;;;;;;6.30;4.10;;;1.80;99.90;;;;;;5071364;28;20486;-67
2024/01/16 10:08:08;;;;;;;7.20;4.70;;;2.00;99.90;;;;;;5056378;28;20048;-66
2024/01/16 10:10:34;;;;;;;6.68;4.30;;;2.10;99.90;;;;;;5093562;28;20042;-69
2024/01/16 10:13:00;;;;;;;7.43;4.32;;;2.00;99.90;;;;;;5074757;28;21062;-67
2024/01/16 10:15:26;;;;;;;9.55;5.10;;;2.00;99.90;;;;;;5090027;28;20126;-68
2024/01/16 10:17:52;;;;;;;12.60;4.22;;;2.00;99.90;;;;;;5092264;28;20143;-68
2024/01/16 10:20:36;;;;;;;4.97;4.25;;;2.10;99.90;;;;;;5074751;28;20093;-68
2024/01/16 10:23:03;;;;;;;6.85;3.88;;;2.00;99.90;;;;;;5065459;28;20388;-67
2024/01/16 10:25:32;;;;;;;4.97;4.20;;;2.00;99.90;;;;;;5090839;28;20423;-67
2024/01/16 10:28:07;;;;;;;10.18;4.38;;;2.10;99.90;;;;;;5074478;28;20051;-68
2024/01/16 10:30:33;;;;;;;9.95;4.00;;;2.00;99.90;;;;;;5055591;28;20044;-68
2024/01/16 10:33:16;;;;;;;4.68;3.50;;;2.00;99.90;;;;;;5074074;28;20128;-68
2024/01/16 10:35:41;;;;;;;3.58;3.08;;;2.00;99.90;;;;;;5056831;28;20125;-69
2024/01/16 10:38:07;;;;;;;9.27;3.55;;;2.10;99.90;;;;;;5092462;28;20078;-69
2024/01/16 10:40:34;;;;;;;7.82;3.38;;;2.10;99.90;;;;;;5074184;28;20114;-69
2024/01/16 10:43:00;;;;;;;8.32;3.10;;;2.10;99.90;;;;;;5057233;28;20032;-69
2024/01/16 10:45:26;;;;;;;4.38;2.83;;;2.10;99.90;;;;;;5073477;28;20072;-68
2024/01/16 10:48:02;;;;;;;5.00;3.00;;;2.10;99.90;;;;;;5056980;28;20051;-69
2024/01/16 10:50:28;;;;;;;4.88;2.70;;;2.20;99.90;;;;;;5056918;28;20067;-69
2024/01/16 10:52:54;;;;;;;6.68;3.10;;;2.20;99.90;;;;;;5056922;28;20395;-69
2024/01/16 10:55:24;;;;;;;11.32;2.95;;;2.10;99.90;;;;;;5092282;28;20051;-67
2024/01/16 10:57:53;;;;;;;7.45;2.90;;;2.20;99.90;;;;;;5091999;28;20036;-68
2024/01/16 11:00:20;;;;;;;2.83;2.30;;;2.20;99.90;;;;;;5091164;28;20360;-68
2024/01/16 11:03:07;;;;;;;4.72;2.60;;;2.20;99.90;;;;;;5088825;28;20058;-69
2024/01/16 11:05:35;;;;;;;4.38;2.80;;;2.20;99.90;;;;;;5091302;28;20127;-68
2024/01/16 11:08:01;;;;;;;6.07;2.60;;;2.20;99.90;;;;;;5087247;28;20753;-68
2024/01/16 11:10:28;;;;;;;4.57;2.63;;;2.30;99.90;;;;;;5073767;28;20726;-68
2024/01/16 11:12:55;;;;;;;2.65;2.13;;;2.20;99.90;;;;;;5091861;28;20107;-68
2024/01/16 11:15:21;;;;;;;4.82;2.40;;;2.30;99.90;;;;;;5090611;28;20399;-68
2024/01/16 11:17:49;;;;;;;5.72;2.30;;;2.30;99.90;;;;;;5072521;28;20483;-68
2024/01/16 11:20:16;;;;;;;5.78;2.30;;;2.20;99.90;;;;;;5085682;28;20042;-67
2024/01/16 11:22:46;;;;;;;4.53;2.50;;;2.30;99.90;;;;;;5081191;28;20147;-68
2024/01/16 11:25:13;;;;;;;9.80;3.00;;;2.20;99.90;;;;;;5108058;28;20054;-68
2024/01/16 11:27:40;;;;;;;7.03;2.67;;;2.20;99.90;;;;;;5092169;28;20044;-68
2024/01/16 11:30:07;;;;;;;6.93;2.80;;;2.20;99.90;;;;;;5090723;28;20052;-68
2024/01/16 11:32:40;;;;;;;8.30;2.60;;;2.20;99.90;;;;;;5091048;28;20046;-68
2024/01/16 11:35:07;;;;;;;4.80;2.45;;;2.20;99.90;;;;;;5106644;28;20379;-70
2024/01/16 11:37:33;;;;;;;5.40;2.40;;;2.20;99.90;;;;;;5111210;28;20039;-68
2024/01/16 11:40:17;;;;;;;6.90;2.70;;;2.20;99.90;;;;;;5111154;28;20075;-68
2024/01/16 11:42:44;;;;;;;7.65;3.38;;;2.20;99.90;;;;;;5093038;28;20093;-68
2024/01/16 11:45:28;;;;;;;6.68;3.53;;;2.30;99.90;;;;;;5092341;28;20047;-68
2024/01/16 11:48:10;;;;;;;9.27;3.20;;;2.30;99.90;;;;;;5092616;28;20082;-69
2024/01/16 11:50:37;;;;;;;8.83;3.57;;;2.20;99.90;;;;;;5092324;28;20047;-69
2024/01/16 11:53:03;;;;;;;7.75;3.42;;;2.30;99.90;;;;;;5112654;28;20031;-68
2024/01/16 11:55:35;;;;;;;6.18;3.50;;;2.20;99.90;;;;;;5092639;28;20048;-68
2024/01/16 11:58:38;;;;;;;6.50;3.50;;;2.20;99.90;;;;;;5092784;28;20052;-68
2024/01/16 12:01:06;;;;;;;7.72;4.53;;;2.20;99.90;;;;;;5092612;28;20059;-68
2024/01/16 12:03:32;;;;;;;7.38;4.20;;;2.20;99.90;;;;;;5092130;28;20071;-68
2024/01/16 12:05:58;;;;;;;6.85;3.95;;;2.20;99.90;;;;;;5076717;28;20051;-68
2024/01/16 12:08:24;;;;;;;10.55;4.22;;;2.10;99.90;;;;;;5055276;28;20395;-69
2024/01/16 12:10:50;;;;;;;9.88;5.35;;;2.10;99.90;;;;;;5075896;28;20039;-69
2024/01/16 12:13:16;;;;;;;8.02;5.90;;;2.20;99.90;;;;;;5088076;28;20172;-67
2024/01/16 12:15:43;;;;;;;8.00;5.43;;;2.10;99.90;;;;;;5071468;28;20182;-67
2024/01/16 12:18:09;;;;;;;12.32;5.63;;;2.10;99.90;;;;;;5090407;28;20126;-67
2024/01/16 12:20:37;;;;;;;13.68;5.75;;;2.10;99.90;;;;;;5071785;28;20520;-67
2024/01/16 12:23:04;;;;;;;14.15;6.93;;;2.10;99.90;;;;;;5070979;28;20048;-67
2024/01/16 12:25:32;;;;;;;10.07;5.82;;;2.20;99.90;;;;;;5089331;28;20119;-67
2024/01/16 12:28:02;;;;;;;11.35;5.75;;;2.10;99.90;;;;;;5070790;28;20065;-67
2024/01/16 12:30:31;;;;;;;10.07;6.13;;;2.20;99.90;;;;;;5071435;28;20376;-67
2024/01/16 12:33:13;;;;;;;8.70;6.53;;;2.20;99.90;;;;;;5089591;28;20051;-67
2024/01/16 12:35:42;;;;;;;10.35;7.13;;;2.20;99.90;;;;;;5090022;28;20044;-68
2024/01/16 12:38:09;;;;;;;13.07;6.60;;;2.20;99.90;;;;;;5089797;28;20056;-66
2024/01/16 12:40:44;;;;;;;13.23;6.05;;;2.10;99.90;;;;;;5089684;28;20531;-67
2024/01/16 12:43:10;;;;;;;13.75;6.65;;;2.10;99.90;;;;;;5089384;28;20043;-68
2024/01/16 12:45:36;;;;;;;10.75;6.68;;;2.10;99.90;;;;;;5089560;28;20363;-67
2024/01/16 12:48:05;;;;;;;11.77;5.95;;;2.20;99.90;;;;;;5071216;28;20043;-67
2024/01/16 12:50:32;;;;;;;12.25;6.78;;;2.10;99.90;;;;;;5089624;28;20040;-67
2024/01/16 12:53:08;;;;;;;10.00;6.32;;;2.10;99.90;;;;;;5071260;28;20052;-67